sensor_id;sensor_type;location;lat;lon;timestamp;pressure;altitude;pressure_sealevel;temperature;humidity
35519;BME280;21627;48.216;16.482;2023-03-14T00:01:17;98142.00;;;9.48;75.58
35519;BME280;21627;48.216;16.482;2023-03-14T00:03:47;98131.84;;;9.41;76.07
35519;BME280;21627;48.216;16.482;2023-03-14T00:06:16;98117.44;;;9.30;76.15
35519;BME280;21627;48.216;16.482;2023-03-14T00:08:44;98128.16;;;9.52;75.82
35519;BME280;21627;48.216;16.482;2023-03-14T00:11:16;98122.28;;;9.46;75.41
35519;BME280;21627;48.216;16.482;2023-03-14T00:13:43;98124.06;;;9.42;75.77
35519;BME280;21627;48.216;16.482;2023-03-14T00:16:13;98113.63;;;9.47;75.82
35519;BME280;21627;48.216;16.482;2023-03-14T00:18:40;98107.00;;;9.37;76.11
35519;BME280;21627;48.216;16.482;2023-03-14T00:21:09;98110.38;;;9.40;76.24
35519;BME280;21627;48.216;16.482;2023-03-14T00:23:39;98106.13;;;9.38;76.63
35519;BME280;21627;48.216;16.482;2023-03-14T00:26:10;98093.28;;;9.35;76.71
35519;BME280;21627;48.216;16.482;2023-03-14T00:28:40;98087.28;;;9.34;76.14
35519;BME280;21627;48.216;16.482;2023-03-14T00:31:10;98100.16;;;9.34;77.07
35519;BME280;21627;48.216;16.482;2023-03-14T00:33:38;98077.28;;;9.19;77.45
35519;BME280;21627;48.216;16.482;2023-03-14T00:36:09;98087.34;;;9.31;77.27
35519;BME280;21627;48.216;16.482;2023-03-14T00:38:41;98075.50;;;9.22;76.97
35519;BME280;21627;48.216;16.482;2023-03-14T00:41:15;98077.91;;;9.30;77.28
35519;BME280;21627;48.216;16.482;2023-03-14T00:43:43;98071.13;;;9.26;77.79
35519;BME280;21627;48.216;16.482;2023-03-14T00:46:11;98061.66;;;9.26;78.01
35519;BME280;21627;48.216;16.482;2023-03-14T00:48:39;98066.81;;;9.26;77.92
35519;BME280;21627;48.216;16.482;2023-03-14T00:51:08;98077.09;;;9.28;78.14
35519;BME280;21627;48.216;16.482;2023-03-14T00:53:37;98072.97;;;9.19;78.70
35519;BME280;21627;48.216;16.482;2023-03-14T00:56:10;98068.78;;;9.15;79.13
35519;BME280;21627;48.216;16.482;2023-03-14T00:58:38;98052.72;;;9.02;79.23
35519;BME280;21627;48.216;16.482;2023-03-14T01:01:17;98051.84;;;9.02;79.99
35519;BME280;21627;48.216;16.482;2023-03-14T01:03:46;98048.44;;;9.01;80.50
35519;BME280;21627;48.216;16.482;2023-03-14T01:06:26;98036.50;;;8.97;80.58
35519;BME280;21627;48.216;16.482;2023-03-14T01:08:54;98034.78;;;8.96;80.05
35519;BME280;21627;48.216;16.482;2023-03-14T01:11:29;98043.16;;;9.07;80.40
35519;BME280;21627;48.216;16.482;2023-03-14T01:13:57;98033.81;;;9.02;80.81
35519;BME280;21627;48.216;16.482;2023-03-14T01:16:27;98026.22;;;8.96;81.49
35519;BME280;21627;48.216;16.482;2023-03-14T01:18:55;98024.56;;;8.92;81.70
35519;BME280;21627;48.216;16.482;2023-03-14T01:21:34;98017.16;;;8.78;82.09
35519;BME280;21627;48.216;16.482;2023-03-14T01:24:04;98035.19;;;8.78;82.08
35519;BME280;21627;48.216;16.482;2023-03-14T01:26:34;98019.91;;;8.69;83.15
35519;BME280;21627;48.216;16.482;2023-03-14T01:29:02;98012.16;;;8.70;83.07
35519;BME280;21627;48.216;16.482;2023-03-14T01:31:30;98008.16;;;8.57;83.24
35519;BME280;21627;48.216;16.482;2023-03-14T01:33:57;98014.97;;;8.59;83.81
35519;BME280;21627;48.216;16.482;2023-03-14T01:36:24;97988.69;;;8.39;84.20
35519;BME280;21627;48.216;16.482;2023-03-14T01:38:52;97985.28;;;8.38;84.09
35519;BME280;21627;48.216;16.482;2023-03-14T01:41:23;98002.47;;;8.39;85.02
35519;BME280;21627;48.216;16.482;2023-03-14T01:43:50;97998.22;;;8.34;84.86
35519;BME280;21627;48.216;16.482;2023-03-14T01:46:22;98005.13;;;8.33;85.31
35519;BME280;21627;48.216;16.482;2023-03-14T01:49:24;98005.19;;;8.30;86.24
35519;BME280;21627;48.216;16.482;2023-03-14T01:57:19;98000.25;;;8.18;86.12
35519;BME280;21627;48.216;16.482;2023-03-14T02:00:10;98000.28;;;8.16;86.56
35519;BME280;21627;48.216;16.482;2023-03-14T02:02:49;98006.41;;;8.11;86.99
35519;BME280;21627;48.216;16.482;2023-03-14T02:05:25;98008.13;;;8.09;87.03
35519;BME280;21627;48.216;16.482;2023-03-14T02:07:58;98012.44;;;8.08;86.65
35519;BME280;21627;48.216;16.482;2023-03-14T02:10:34;98001.69;;;7.86;87.04
35519;BME280;21627;48.216;16.482;2023-03-14T02:13:04;98017.13;;;7.86;86.93
35519;BME280;21627;48.216;16.482;2023-03-14T02:15:32;98012.09;;;7.78;87.52
35519;BME280;21627;48.216;16.482;2023-03-14T02:18:02;98016.44;;;7.76;88.31
35519;BME280;21627;48.216;16.482;2023-03-14T02:21:01;98001.22;;;7.64;88.84
35519;BME280;21627;48.216;16.482;2023-03-14T02:26:38;98001.34;;;7.56;89.27
35519;BME280;21627;48.216;16.482;2023-03-14T02:29:07;97993.81;;;7.44;89.98
35519;BME280;21627;48.216;16.482;2023-03-14T02:31:34;98010.13;;;7.42;89.70
35519;BME280;21627;48.216;16.482;2023-03-14T02:34:03;97998.28;;;7.31;90.76
35519;BME280;21627;48.216;16.482;2023-03-14T02:36:30;98000.88;;;7.31;90.80
35519;BME280;21627;48.216;16.482;2023-03-14T02:39:15;98015.53;;;7.25;91.64
35519;BME280;21627;48.216;16.482;2023-03-14T02:41:47;98022.50;;;7.15;91.16
35519;BME280;21627;48.216;16.482;2023-03-14T02:44:16;98025.19;;;7.07;91.48
35519;BME280;21627;48.216;16.482;2023-03-14T02:46:43;98019.31;;;7.01;93.06
35519;BME280;21627;48.216;16.482;2023-03-14T02:49:12;98042.38;;;7.02;94.13
35519;BME280;21627;48.216;16.482;2023-03-14T02:51:41;98045.00;;;6.99;94.01
35519;BME280;21627;48.216;16.482;2023-03-14T02:54:10;98044.22;;;6.92;94.38
35519;BME280;21627;48.216;16.482;2023-03-14T02:56:37;98059.69;;;6.89;94.33
35519;BME280;21627;48.216;16.482;2023-03-14T02:59:05;98056.44;;;6.77;95.09
35519;BME280;21627;48.216;16.482;2023-03-14T03:01:34;98069.25;;;6.78;95.38
35519;BME280;21627;48.216;16.482;2023-03-14T03:04:01;98077.88;;;6.72;95.73
35519;BME280;21627;48.216;16.482;2023-03-14T03:06:28;98074.44;;;6.72;95.54
35519;BME280;21627;48.216;16.482;2023-03-14T03:08:56;98093.38;;;6.65;97.29
35519;BME280;21627;48.216;16.482;2023-03-14T03:11:23;98082.25;;;6.64;96.57
35519;BME280;21627;48.216;16.482;2023-03-14T03:13:50;98100.25;;;6.61;97.94
35519;BME280;21627;48.216;16.482;2023-03-14T03:16:17;98089.09;;;6.64;97.82
35519;BME280;21627;48.216;16.482;2023-03-14T03:18:44;98100.25;;;6.63;97.52
35519;BME280;21627;48.216;16.482;2023-03-14T03:21:11;98111.47;;;6.56;99.04
35519;BME280;21627;48.216;16.482;2023-03-14T03:23:38;98104.72;;;6.42;99.41
35519;BME280;21627;48.216;16.482;2023-03-14T03:26:06;98135.50;;;6.48;98.64
35519;BME280;21627;48.216;16.482;2023-03-14T03:28:33;98131.19;;;6.50;99.84
35519;BME280;21627;48.216;16.482;2023-03-14T03:31:08;98121.03;;;6.37;100.00
35519;BME280;21627;48.216;16.482;2023-03-14T03:33:37;98134.75;;;6.36;100.00
35519;BME280;21627;48.216;16.482;2023-03-14T03:36:05;98137.34;;;6.29;100.00
35519;BME280;21627;48.216;16.482;2023-03-14T03:38:32;98142.59;;;6.20;100.00
35519;BME280;21627;48.216;16.482;2023-03-14T03:41:04;98153.69;;;6.21;100.00
35519;BME280;21627;48.216;16.482;2023-03-14T03:43:34;98157.16;;;6.18;100.00
35519;BME280;21627;48.216;16.482;2023-03-14T03:46:05;98146.03;;;6.15;100.00
35519;BME280;21627;48.216;16.482;2023-03-14T03:48:34;98117.06;;;6.02;100.00
35519;BME280;21627;48.216;16.482;2023-03-14T03:51:01;98132.41;;;6.11;100.00
35519;BME280;21627;48.216;16.482;2023-03-14T03:53:29;98129.91;;;6.05;100.00
35519;BME280;21627;48.216;16.482;2023-03-14T03:55:59;98133.16;;;6.21;100.00
35519;BME280;21627;48.216;16.482;2023-03-14T03:58:27;98135.81;;;6.13;100.00
35519;BME280;21627;48.216;16.482;2023-03-14T04:00:55;98123.84;;;6.09;100.00
35519;BME280;21627;48.216;16.482;2023-03-14T04:03:22;98127.31;;;6.05;100.00
35519;BME280;21627;48.216;16.482;2023-03-14T04:06:05;98111.16;;;5.92;100.00
35519;BME280;21627;48.216;16.482;2023-03-14T04:08:33;98140.22;;;5.97;100.00
35519;BME280;21627;48.216;16.482;2023-03-14T04:11:01;98128.22;;;5.96;100.00
35519;BME280;21627;48.216;16.482;2023-03-14T04:13:28;98106.91;;;5.88;100.00
35519;BME280;21627;48.216;16.482;2023-03-14T04:15:56;98104.34;;;5.88;100.00
35519;BME280;21627;48.216;16.482;2023-03-14T04:18:24;98113.81;;;5.80;100.00
35519;BME280;21627;48.216;16.482;2023-03-14T04:20:53;98124.94;;;5.76;100.00
35519;BME280;21627;48.216;16.482;2023-03-14T04:23:22;98133.47;;;5.78;100.00
35519;BME280;21627;48.216;16.482;2023-03-14T04:25:52;98154.03;;;5.75;100.00
35519;BME280;21627;48.216;16.482;2023-03-14T04:28:19;98160.88;;;5.73;100.00
35519;BME280;21627;48.216;16.482;2023-03-14T04:30:47;98155.75;;;5.70;100.00
35519;BME280;21627;48.216;16.482;2023-03-14T04:33:14;98148.94;;;5.67;100.00
35519;BME280;21627;48.216;16.482;2023-03-14T04:36:03;98164.34;;;5.62;100.00
35519;BME280;21627;48.216;16.482;2023-03-14T04:38:49;98169.47;;;5.61;100.00
35519;BME280;21627;48.216;16.482;2023-03-14T04:41:16;98170.34;;;5.58;100.00
35519;BME280;21627;48.216;16.482;2023-03-14T04:43:43;98164.41;;;5.49;100.00
35519;BME280;21627;48.216;16.482;2023-03-14T04:46:10;98161.84;;;5.49;100.00
35519;BME280;21627;48.216;16.482;2023-03-14T04:48:37;98175.50;;;5.52;100.00
35519;BME280;21627;48.216;16.482;2023-03-14T04:51:05;98168.66;;;5.53;100.00
35519;BME280;21627;48.216;16.482;2023-03-14T04:53:32;98152.47;;;5.46;100.00
35519;BME280;21627;48.216;16.482;2023-03-14T04:56:01;98149.88;;;5.49;100.00
35519;BME280;21627;48.216;16.482;2023-03-14T04:58:28;98133.66;;;5.44;100.00
35519;BME280;21627;48.216;16.482;2023-03-14T05:00:55;98152.44;;;5.51;100.00
35519;BME280;21627;48.216;16.482;2023-03-14T05:03:23;98153.28;;;5.51;100.00
35519;BME280;21627;48.216;16.482;2023-03-14T05:05:50;98158.41;;;5.53;100.00
35519;BME280;21627;48.216;16.482;2023-03-14T05:08:17;98153.31;;;5.43;100.00
35519;BME280;21627;48.216;16.482;2023-03-14T05:10:44;98179.78;;;5.53;100.00
35519;BME280;21627;48.216;16.482;2023-03-14T05:13:11;98164.38;;;5.52;100.00
35519;BME280;21627;48.216;16.482;2023-03-14T05:15:38;98155.91;;;5.45;100.00
35519;BME280;21627;48.216;16.482;2023-03-14T05:18:05;98160.13;;;5.49;100.00
35519;BME280;21627;48.216;16.482;2023-03-14T05:20:32;98152.47;;;5.43;100.00
35519;BME280;21627;48.216;16.482;2023-03-14T05:22:59;98172.94;;;5.51;100.00
35519;BME280;21627;48.216;16.482;2023-03-14T05:25:26;98177.25;;;5.47;100.00
35519;BME280;21627;48.216;16.482;2023-03-14T05:27:55;98189.19;;;5.47;100.00
35519;BME280;21627;48.216;16.482;2023-03-14T05:30:22;98177.28;;;5.38;100.00
35519;BME280;21627;48.216;16.482;2023-03-14T05:32:52;98214.00;;;5.43;100.00
35519;BME280;21627;48.216;16.482;2023-03-14T05:35:20;98209.75;;;5.37;100.00
35519;BME280;21627;48.216;16.482;2023-03-14T05:37:47;98225.97;;;5.42;100.00
35519;BME280;21627;48.216;16.482;2023-03-14T05:40:14;98212.31;;;5.37;100.00
35519;BME280;21627;48.216;16.482;2023-03-14T05:42:41;98237.03;;;5.46;100.00
35519;BME280;21627;48.216;16.482;2023-03-14T05:45:09;98226.78;;;5.46;100.00
35519;BME280;21627;48.216;16.482;2023-03-14T05:47:36;98208.88;;;5.41;100.00
35519;BME280;21627;48.216;16.482;2023-03-14T05:50:04;98213.13;;;5.50;100.00
35519;BME280;21627;48.216;16.482;2023-03-14T05:52:31;98231.03;;;5.56;100.00
35519;BME280;21627;48.216;16.482;2023-03-14T05:54:58;98218.25;;;5.50;100.00
35519;BME280;21627;48.216;16.482;2023-03-14T05:57:25;98225.03;;;5.60;100.00
35519;BME280;21627;48.216;16.482;2023-03-14T05:59:53;98226.69;;;5.69;100.00
35519;BME280;21627;48.216;16.482;2023-03-14T06:02:20;98242.06;;;5.71;100.00
35519;BME280;21627;48.216;16.482;2023-03-14T06:04:47;98236.06;;;5.76;100.00
35519;BME280;21627;48.216;16.482;2023-03-14T06:07:14;98237.75;;;5.79;100.00
35519;BME280;21627;48.216;16.482;2023-03-14T06:09:41;98249.66;;;5.89;100.00
35519;BME280;21627;48.216;16.482;2023-03-14T06:12:08;98259.09;;;5.95;100.00
35519;BME280;21627;48.216;16.482;2023-03-14T06:14:35;98252.25;;;5.92;100.00
35519;BME280;21627;48.216;16.482;2023-03-14T06:17:03;98245.38;;;5.99;100.00
35519;BME280;21627;48.216;16.482;2023-03-14T06:19:30;98230.84;;;5.96;100.00
35519;BME280;21627;48.216;16.482;2023-03-14T06:21:57;98251.25;;;6.15;100.00
35519;BME280;21627;48.216;16.482;2023-03-14T06:24:24;98252.91;;;6.22;100.00
35519;BME280;21627;48.216;16.482;2023-03-14T06:26:51;98255.44;;;6.29;100.00
35519;BME280;21627;48.216;16.482;2023-03-14T06:29:19;98240.91;;;6.30;100.00
35519;BME280;21627;48.216;16.482;2023-03-14T06:31:46;98249.38;;;6.43;100.00
35519;BME280;21627;48.216;16.482;2023-03-14T06:34:13;98241.56;;;6.52;100.00
35519;BME280;21627;48.216;16.482;2023-03-14T06:36:41;98244.06;;;6.60;100.00
35519;BME280;21627;48.216;16.482;2023-03-14T06:39:08;98239.72;;;6.69;100.00
35519;BME280;21627;48.216;16.482;2023-03-14T06:41:35;98243.06;;;6.79;100.00
35519;BME280;21627;48.216;16.482;2023-03-14T06:44:02;98239.56;;;6.88;100.00
35519;BME280;21627;48.216;16.482;2023-03-14T06:46:29;98234.34;;;6.96;100.00
35519;BME280;21627;48.216;16.482;2023-03-14T06:48:57;98232.50;;;7.07;100.00
35519;BME280;21627;48.216;16.482;2023-03-14T06:51:24;98239.13;;;7.28;100.00
35519;BME280;21627;48.216;16.482;2023-03-14T06:53:51;98224.31;;;7.50;100.00
35519;BME280;21627;48.216;16.482;2023-03-14T06:56:18;98229.34;;;7.57;100.00
35519;BME280;21627;48.216;16.482;2023-03-14T06:58:45;98249.78;;;7.68;100.00
35519;BME280;21627;48.216;16.482;2023-03-14T07:01:27;98238.44;;;7.85;97.55
35519;BME280;21627;48.216;16.482;2023-03-14T07:03:55;98222.16;;;7.84;97.42
35519;BME280;21627;48.216;16.482;2023-03-14T07:06:23;98228.88;;;7.93;95.59
35519;BME280;21627;48.216;16.482;2023-03-14T07:08:50;98235.63;;;8.01;95.15
35519;BME280;21627;48.216;16.482;2023-03-14T07:11:18;98226.94;;;8.09;94.70
35519;BME280;21627;48.216;16.482;2023-03-14T07:13:45;98237.09;;;8.19;94.05
35519;BME280;21627;48.216;16.482;2023-03-14T07:16:12;98232.69;;;8.26;92.68
35519;BME280;21627;48.216;16.482;2023-03-14T07:18:39;98246.13;;;8.47;91.19
35519;BME280;21627;48.216;16.482;2023-03-14T07:21:08;98248.50;;;8.62;91.21
35519;BME280;21627;48.216;16.482;2023-03-14T07:23:36;98244.06;;;8.69;90.72
35519;BME280;21627;48.216;16.482;2023-03-14T07:26:03;98261.81;;;8.87;88.35
35519;BME280;21627;48.216;16.482;2023-03-14T07:28:30;98255.69;;;8.93;88.01
35519;BME280;21627;48.216;16.482;2023-03-14T07:30:57;98259.03;;;8.98;88.98
35519;BME280;21627;48.216;16.482;2023-03-14T07:33:24;98253.75;;;9.05;86.98
35519;BME280;21627;48.216;16.482;2023-03-14T07:35:51;98258.84;;;9.08;87.36
35519;BME280;21627;48.216;16.482;2023-03-14T07:38:19;98254.56;;;9.07;86.70
35519;BME280;21627;48.216;16.482;2023-03-14T07:40:50;98266.50;;;9.12;86.71
35519;BME280;21627;48.216;16.482;2023-03-14T07:43:17;98275.00;;;9.17;85.30
35519;BME280;21627;48.216;16.482;2023-03-14T07:45:47;98262.94;;;9.19;85.74
35519;BME280;21627;48.216;16.482;2023-03-14T07:48:17;98243.22;;;9.16;87.62
35519;BME280;21627;48.216;16.482;2023-03-14T07:50:48;98255.00;;;9.29;87.67
35519;BME280;21627;48.216;16.482;2023-03-14T07:53:16;98247.31;;;9.28;88.48
35519;BME280;21627;48.216;16.482;2023-03-14T07:55:44;98256.53;;;9.40;88.39
35519;BME280;21627;48.216;16.482;2023-03-14T07:58:12;98253.69;;;9.53;86.77
35519;BME280;21627;48.216;16.482;2023-03-14T08:00:40;98254.53;;;9.54;85.75
35519;BME280;21627;48.216;16.482;2023-03-14T08:03:07;98243.34;;;9.55;85.14
35519;BME280;21627;48.216;16.482;2023-03-14T08:05:36;98248.44;;;9.58;84.68
35519;BME280;21627;48.216;16.482;2023-03-14T08:08:05;98260.28;;;9.67;84.58
35519;BME280;21627;48.216;16.482;2023-03-14T08:10:32;98253.31;;;9.72;82.92
35519;BME280;21627;48.216;16.482;2023-03-14T08:13:00;98252.13;;;9.88;82.02
35519;BME280;21627;48.216;16.482;2023-03-14T08:15:30;98243.97;;;10.07;80.56
35519;BME280;21627;48.216;16.482;2023-03-14T08:17:58;98240.38;;;10.14;81.07
35519;BME280;21627;48.216;16.482;2023-03-14T08:20:28;98237.72;;;10.17;81.30
35519;BME280;21627;48.216;16.482;2023-03-14T08:23:00;98239.56;;;10.51;79.85
35519;BME280;21627;48.216;16.482;2023-03-14T08:25:28;98246.06;;;10.66;78.70
35519;BME280;21627;48.216;16.482;2023-03-14T08:27:56;98232.00;;;10.76;77.66
35519;BME280;21627;48.216;16.482;2023-03-14T08:30:23;98231.50;;;10.96;75.67
35519;BME280;21627;48.216;16.482;2023-03-14T08:32:50;98242.53;;;11.04;74.91
35519;BME280;21627;48.216;16.482;2023-03-14T08:35:18;98232.91;;;11.09;73.53
35519;BME280;21627;48.216;16.482;2023-03-14T08:37:45;98244.81;;;11.15;75.83
35519;BME280;21627;48.216;16.482;2023-03-14T08:40:13;98232.78;;;11.14;73.64
35519;BME280;21627;48.216;16.482;2023-03-14T08:42:40;98243.97;;;11.14;74.51
35519;BME280;21627;48.216;16.482;2023-03-14T08:45:13;98237.97;;;11.14;73.41
35519;BME280;21627;48.216;16.482;2023-03-14T08:47:43;98228.69;;;11.05;73.19
35519;BME280;21627;48.216;16.482;2023-03-14T08:50:11;98241.50;;;11.10;72.54
35519;BME280;21627;48.216;16.482;2023-03-14T08:52:42;98249.06;;;11.17;71.69
35519;BME280;21627;48.216;16.482;2023-03-14T08:55:10;98229.44;;;11.09;72.00
35519;BME280;21627;48.216;16.482;2023-03-14T08:57:37;98226.94;;;11.05;72.40
35519;BME280;21627;48.216;16.482;2023-03-14T09:00:06;98232.84;;;11.11;71.82
35519;BME280;21627;48.216;16.482;2023-03-14T09:02:43;98221.69;;;11.09;72.29
35519;BME280;21627;48.216;16.482;2023-03-14T09:05:11;98213.88;;;11.10;72.38
35519;BME280;21627;48.216;16.482;2023-03-14T09:07:39;98229.31;;;11.13;72.38
35519;BME280;21627;48.216;16.482;2023-03-14T09:10:08;98224.16;;;11.13;72.95
35519;BME280;21627;48.216;16.482;2023-03-14T09:12:35;98210.34;;;11.14;72.15
35519;BME280;21627;48.216;16.482;2023-03-14T09:15:04;98215.41;;;11.19;72.55
35519;BME280;21627;48.216;16.482;2023-03-14T09:17:31;98211.16;;;11.16;73.08
35519;BME280;21627;48.216;16.482;2023-03-14T09:19:58;98204.25;;;11.17;72.32
35519;BME280;21627;48.216;16.482;2023-03-14T09:22:26;98209.50;;;11.14;73.32
35519;BME280;21627;48.216;16.482;2023-03-14T09:24:53;98218.75;;;11.21;72.80
35519;BME280;21627;48.216;16.482;2023-03-14T09:27:21;98243.56;;;11.30;72.44
35519;BME280;21627;48.216;16.482;2023-03-14T09:29:49;98245.34;;;11.27;72.89
35519;BME280;21627;48.216;16.482;2023-03-14T09:32:16;98239.41;;;11.24;72.97
35519;BME280;21627;48.216;16.482;2023-03-14T09:34:43;98229.31;;;11.13;73.17
35519;BME280;21627;48.216;16.482;2023-03-14T09:37:10;98225.91;;;11.11;73.20
35519;BME280;21627;48.216;16.482;2023-03-14T09:39:37;98238.75;;;11.16;74.03
35519;BME280;21627;48.216;16.482;2023-03-14T09:42:06;98221.75;;;11.07;74.82
35519;BME280;21627;48.216;16.482;2023-03-14T09:44:42;98232.78;;;11.14;74.63
35519;BME280;21627;48.216;16.482;2023-03-14T09:47:12;98234.44;;;11.16;74.39
35519;BME280;21627;48.216;16.482;2023-03-14T09:49:40;98222.47;;;11.12;75.00
35519;BME280;21627;48.216;16.482;2023-03-14T09:52:22;98238.69;;;11.19;75.22
35519;BME280;21627;48.216;16.482;2023-03-14T09:54:54;98230.84;;;11.20;76.15
35519;BME280;21627;48.216;16.482;2023-03-14T09:57:25;98219.75;;;11.17;75.45
35519;BME280;21627;48.216;16.482;2023-03-14T10:00:22;98235.91;;;11.25;75.93
35519;BME280;21627;48.216;16.482;2023-03-14T10:03:00;98238.50;;;11.25;76.81
35519;BME280;21627;48.216;16.482;2023-03-14T10:05:34;98241.09;;;11.25;77.52
35519;BME280;21627;48.216;16.482;2023-03-14T10:08:01;98237.69;;;11.23;79.10
35519;BME280;21627;48.216;16.482;2023-03-14T10:10:28;98236.88;;;11.21;80.07
35519;BME280;21627;48.216;16.482;2023-03-14T10:13:21;98227.56;;;11.15;80.67
35519;BME280;21627;48.216;16.482;2023-03-14T10:18:23;98228.19;;;11.23;79.81
35519;BME280;21627;48.216;16.482;2023-03-14T10:21:43;98219.44;;;11.29;79.99
35519;BME280;21627;48.216;16.482;2023-03-14T10:26:58;98222.66;;;11.37;79.34
35519;BME280;21627;48.216;16.482;2023-03-14T10:29:31;98196.88;;;11.33;79.01
35519;BME280;21627;48.216;16.482;2023-03-14T10:34:38;98218.06;;;11.47;79.03
35519;BME280;21627;48.216;16.482;2023-03-14T10:37:21;98223.16;;;11.50;78.96
35519;BME280;21627;48.216;16.482;2023-03-14T10:39:52;98226.56;;;11.51;79.49
35519;BME280;21627;48.216;16.482;2023-03-14T10:42:25;98229.03;;;11.55;79.87
35519;BME280;21627;48.216;16.482;2023-03-14T10:45:00;98229.84;;;11.57;79.87
35519;BME280;21627;48.216;16.482;2023-03-14T10:47:29;98228.84;;;11.61;79.80
35519;BME280;21627;48.216;16.482;2023-03-14T10:49:57;98226.34;;;11.58;80.05
35519;BME280;21627;48.216;16.482;2023-03-14T10:52:48;98233.19;;;11.61;79.84
35519;BME280;21627;48.216;16.482;2023-03-14T10:55:42;98229.56;;;11.66;77.64
35519;BME280;21627;48.216;16.482;2023-03-14T10:58:27;98223.31;;;11.74;78.80
35519;BME280;21627;48.216;16.482;2023-03-14T11:07:14;98224.03;;;12.08;80.85
35519;BME280;21627;48.216;16.482;2023-03-14T11:13:27;98211.53;;;12.23;78.19
35519;BME280;21627;48.216;16.482;2023-03-14T11:16:25;98222.34;;;12.36;76.67
35519;BME280;21627;48.216;16.482;2023-03-14T11:25:13;98219.75;;;12.36;71.23
35519;BME280;21627;48.216;16.482;2023-03-14T11:28:07;98219.09;;;12.29;71.21
35519;BME280;21627;48.216;16.482;2023-03-14T11:30:55;98214.09;;;12.23;69.81
35519;BME280;21627;48.216;16.482;2023-03-14T11:33:50;98230.69;;;12.17;69.95
35519;BME280;21627;48.216;16.482;2023-03-14T11:39:18;98219.84;;;12.04;69.09
35519;BME280;21627;48.216;16.482;2023-03-14T11:41:52;98231.66;;;12.15;68.72
35519;BME280;21627;48.216;16.482;2023-03-14T11:44:30;98212.03;;;12.06;67.58
35519;BME280;21627;48.216;16.482;2023-03-14T11:47:10;98237.59;;;12.17;67.23
35519;BME280;21627;48.216;16.482;2023-03-14T11:52:34;98224.41;;;11.96;66.42
35519;BME280;21627;48.216;16.482;2023-03-14T11:55:35;98241.03;;;11.89;67.78
35519;BME280;21627;48.216;16.482;2023-03-14T11:58:29;98235.09;;;11.84;67.70
35519;BME280;21627;48.216;16.482;2023-03-14T12:01:05;98233.22;;;11.90;67.14
35519;BME280;21627;48.216;16.482;2023-03-14T12:03:42;98245.19;;;11.95;67.31
35519;BME280;21627;48.216;16.482;2023-03-14T12:06:48;98245.38;;;11.88;68.63
35519;BME280;21627;48.216;16.482;2023-03-14T12:09:21;98227.13;;;11.91;68.23
35519;BME280;21627;48.216;16.482;2023-03-14T12:11:54;98234.97;;;11.90;68.15
35519;BME280;21627;48.216;16.482;2023-03-14T12:14:33;98235.19;;;11.81;68.99
35519;BME280;21627;48.216;16.482;2023-03-14T12:17:20;98238.00;;;11.73;69.67
35519;BME280;21627;48.216;16.482;2023-03-14T12:20:04;98219.50;;;11.57;70.00
35519;BME280;21627;48.216;16.482;2023-03-14T12:23:01;98237.50;;;11.62;69.87
35519;BME280;21627;48.216;16.482;2023-03-14T12:25:31;98228.13;;;11.56;71.21
35519;BME280;21627;48.216;16.482;2023-03-14T12:30:44;98223.25;;;11.47;71.21
35519;BME280;21627;48.216;16.482;2023-03-14T12:38:39;98232.78;;;11.45;71.92
35519;BME280;21627;48.216;16.482;2023-03-14T12:43:51;98240.91;;;11.31;72.05
35519;BME280;21627;48.216;16.482;2023-03-14T12:46:25;98228.16;;;11.25;71.96
35519;BME280;21627;48.216;16.482;2023-03-14T12:51:41;98225.34;;;11.33;72.59
35519;BME280;21627;48.216;16.482;2023-03-14T12:59:37;98210.25;;;11.17;73.04
35519;BME280;21627;48.216;16.482;2023-03-14T13:02:14;98224.53;;;11.31;72.58
35519;BME280;21627;48.216;16.482;2023-03-14T13:10:28;98221.22;;;11.25;72.24
35519;BME280;21627;48.216;16.482;2023-03-14T13:13:26;98214.63;;;11.15;72.45
35519;BME280;21627;48.216;16.482;2023-03-14T13:15:59;98232.69;;;11.17;72.89
35519;BME280;21627;48.216;16.482;2023-03-14T13:18:37;98237.06;;;11.15;72.92
35519;BME280;21627;48.216;16.482;2023-03-14T13:21:17;98243.25;;;11.09;72.41
35519;BME280;21627;48.216;16.482;2023-03-14T13:26:42;98231.50;;;10.96;73.86
35519;BME280;21627;48.216;16.482;2023-03-14T13:29:22;98234.09;;;10.96;73.96
35519;BME280;21627;48.216;16.482;2023-03-14T13:31:54;98245.88;;;11.08;73.31
35519;BME280;21627;48.216;16.482;2023-03-14T13:34:34;98238.38;;;10.97;73.98
35519;BME280;21627;48.216;16.482;2023-03-14T13:37:02;98247.03;;;10.96;74.07
35519;BME280;21627;48.216;16.482;2023-03-14T13:39:29;98254.97;;;10.88;76.40
35519;BME280;21627;48.216;16.482;2023-03-14T13:42:01;98253.50;;;10.78;76.32
35519;BME280;21627;48.216;16.482;2023-03-14T13:47:01;98252.88;;;10.68;77.06
35519;BME280;21627;48.216;16.482;2023-03-14T13:49:30;98264.00;;;10.72;78.47
35519;BME280;21627;48.216;16.482;2023-03-14T13:51:59;98251.91;;;10.74;77.31
35519;BME280;21627;48.216;16.482;2023-03-14T13:54:28;98251.16;;;10.69;77.32
35519;BME280;21627;48.216;16.482;2023-03-14T13:57:04;98252.97;;;10.65;77.70
35519;BME280;21627;48.216;16.482;2023-03-14T13:59:34;98243.97;;;10.80;76.77
35519;BME280;21627;48.216;16.482;2023-03-14T14:02:11;98254.63;;;10.68;76.21
35519;BME280;21627;48.216;16.482;2023-03-14T14:04:43;98244.25;;;10.69;75.60
35519;BME280;21627;48.216;16.482;2023-03-14T14:07:15;98249.56;;;10.63;76.79
35519;BME280;21627;48.216;16.482;2023-03-14T14:09:52;98265.78;;;10.70;77.92
35519;BME280;21627;48.216;16.482;2023-03-14T14:15:26;98253.25;;;10.53;80.81
35519;BME280;21627;48.216;16.482;2023-03-14T14:18:01;98270.38;;;10.58;82.65
35519;BME280;21627;48.216;16.482;2023-03-14T14:20:36;98269.69;;;10.50;84.80
35519;BME280;21627;48.216;16.482;2023-03-14T14:23:09;98256.19;;;10.39;87.29
35519;BME280;21627;48.216;16.482;2023-03-14T14:25:38;98261.44;;;10.36;89.90